createdAt,value
2023-02-06T00:01:28.218Z,0.80
2023-02-06T00:03:55.303Z,1.75
2023-02-06T00:06:22.403Z,1.00
2023-02-06T00:08:49.566Z,1.42
2023-02-06T00:11:17.318Z,0.68
2023-02-06T00:13:45.524Z,1.75
2023-02-06T00:16:27.120Z,1.08
2023-02-06T00:18:56.922Z,0.95
2023-02-06T00:21:25.990Z,1.70
2023-02-06T00:23:55.102Z,1.70
2023-02-06T00:26:22.852Z,2.42
2023-02-06T00:28:50.110Z,0.88
2023-02-06T00:31:17.315Z,1.00
2023-02-06T00:33:44.653Z,0.65
2023-02-06T00:36:11.881Z,0.35
2023-02-06T00:38:39.548Z,2.38
2023-02-06T00:41:06.786Z,1.00
2023-02-06T00:43:34.141Z,1.27
2023-02-06T00:46:01.319Z,0.88
2023-02-06T00:48:28.783Z,0.70
2023-02-06T00:50:56.173Z,1.38
2023-02-06T00:53:23.472Z,0.40
2023-02-06T00:55:50.592Z,0.88
2023-02-06T00:58:17.746Z,0.43
2023-02-06T01:00:45.253Z,1.95
2023-02-06T01:03:12.623Z,0.82
2023-02-06T01:05:39.668Z,0.73
2023-02-06T01:08:07.090Z,0.85
2023-02-06T01:10:34.402Z,1.15
2023-02-06T01:13:01.743Z,0.57
2023-02-06T01:15:29.014Z,2.03
2023-02-06T01:17:56.054Z,0.47
2023-02-06T01:20:24.022Z,1.00
2023-02-06T01:22:51.293Z,0.85
2023-02-06T01:25:18.458Z,0.75
2023-02-06T01:27:45.699Z,0.45
2023-02-06T01:30:13.499Z,0.95
2023-02-06T01:32:41.959Z,1.20
2023-02-06T01:35:11.512Z,0.88
2023-02-06T01:37:39.743Z,0.93
2023-02-06T01:40:09.573Z,0.95
2023-02-06T01:42:38.460Z,1.15
2023-02-06T01:45:34.786Z,1.25
2023-02-06T01:48:10.447Z,0.73
2023-02-06T01:50:40.547Z,0.38
2023-02-06T01:53:08.649Z,0.57
2023-02-06T01:55:38.854Z,0.35
2023-02-06T01:58:07.049Z,1.52
2023-02-06T02:00:34.167Z,0.55
2023-02-06T02:03:02.328Z,0.68
2023-02-06T02:05:30.157Z,0.17
2023-02-06T02:08:04.572Z,0.10
2023-02-06T02:10:32.562Z,0.25
2023-02-06T02:12:59.889Z,0.55
2023-02-06T02:15:40.171Z,2.42
2023-02-06T02:18:25.960Z,0.55
2023-02-06T02:21:21.962Z,1.73
2023-02-06T02:24:09.198Z,0.60
2023-02-06T02:27:13.784Z,1.17
2023-02-06T02:30:11.514Z,0.20
2023-02-06T02:32:55.170Z,1.85
2023-02-06T02:35:58.170Z,0.22
2023-02-06T02:38:43.794Z,0.73
2023-02-06T02:41:18.625Z,0.40
2023-02-06T02:44:09.626Z,1.38
2023-02-06T02:46:41.499Z,0.57
2023-02-06T02:49:30.208Z,0.20
2023-02-06T02:51:58.728Z,0.30
2023-02-06T02:54:26.694Z,1.45
2023-02-06T02:56:56.688Z,1.33
2023-02-06T02:59:34.565Z,1.58
2023-02-06T03:02:10.159Z,0.63
2023-02-06T03:04:51.425Z,0.90
2023-02-06T03:07:53.981Z,0.13
2023-02-06T03:10:39.949Z,1.38
2023-02-06T03:13:10.221Z,1.23
2023-02-06T03:15:57.284Z,0.28
2023-02-06T03:19:04.993Z,0.57
2023-02-06T03:21:35.247Z,1.48
2023-02-06T03:24:07.753Z,0.47
2023-02-06T03:26:37.339Z,0.57
2023-02-06T03:29:08.680Z,0.50
2023-02-06T03:31:38.374Z,0.28
2023-02-06T03:34:16.307Z,0.85
2023-02-06T03:36:43.715Z,0.60
2023-02-06T03:39:11.415Z,0.82
2023-02-06T03:41:40.993Z,0.75
2023-02-06T03:44:13.303Z,0.50
2023-02-06T03:46:42.084Z,0.65
2023-02-06T03:49:12.640Z,0.50
2023-02-06T03:51:47.388Z,0.98
2023-02-06T03:54:17.152Z,1.45
2023-02-06T03:57:04.097Z,0.25
2023-02-06T03:59:31.770Z,1.05
2023-02-06T04:02:01.080Z,0.68
2023-02-06T04:04:31.144Z,0.45
2023-02-06T04:07:01.843Z,0.55
2023-02-06T04:09:28.932Z,1.02
2023-02-06T04:11:55.948Z,0.10
2023-02-06T04:14:23.136Z,1.75
2023-02-06T04:16:50.281Z,0.85
2023-02-06T04:19:17.554Z,0.13
2023-02-06T04:21:44.774Z,1.17
2023-02-06T04:24:11.833Z,1.38
2023-02-06T04:26:38.852Z,0.28
2023-02-06T04:29:05.933Z,1.42
2023-02-06T04:31:33.141Z,0.93
2023-02-06T04:34:00.182Z,0.43
2023-02-06T04:36:27.234Z,0.28
2023-02-06T04:38:54.276Z,0.63
2023-02-06T04:41:21.954Z,1.05
2023-02-06T04:43:49.066Z,2.85
2023-02-06T04:46:18.770Z,0.85
2023-02-06T04:48:45.869Z,1.73
2023-02-06T04:51:13.103Z,1.38
2023-02-06T04:53:40.136Z,1.30
2023-02-06T04:56:09.429Z,1.65
2023-02-06T04:58:37.503Z,0.95
2023-02-06T05:01:05.318Z,0.90
2023-02-06T05:03:32.611Z,0.40
2023-02-06T05:06:01.478Z,1.50
2023-02-06T05:08:28.754Z,0.30
2023-02-06T05:10:56.527Z,0.55
2023-02-06T05:13:24.175Z,0.55
2023-02-06T05:15:51.333Z,1.48
2023-02-06T05:18:18.663Z,0.32
2023-02-06T05:20:46.122Z,1.42
2023-02-06T05:23:13.158Z,1.23
2023-02-06T05:25:42.191Z,0.40
2023-02-06T05:28:10.494Z,1.85
2023-02-06T05:30:37.697Z,1.05
2023-02-06T05:33:04.844Z,1.25
2023-02-06T05:35:32.039Z,0.22
2023-02-06T05:37:59.104Z,0.32
2023-02-06T05:40:26.145Z,1.17
2023-02-06T05:42:53.318Z,1.17
2023-02-06T05:45:20.354Z,1.27
2023-02-06T05:47:47.318Z,1.40
2023-02-06T05:50:14.667Z,0.40
2023-02-06T05:52:41.743Z,1.42
2023-02-06T05:55:09.820Z,0.65
2023-02-06T05:57:36.858Z,0.73
2023-02-06T06:00:05.677Z,0.82
2023-02-06T06:02:32.813Z,0.95
2023-02-06T06:04:59.931Z,1.98
2023-02-06T06:07:27.071Z,1.00
2023-02-06T06:09:54.215Z,1.05
2023-02-06T06:12:21.323Z,0.93
2023-02-06T06:14:48.529Z,0.93
2023-02-06T06:17:16.182Z,1.77
2023-02-06T06:19:43.293Z,1.45
2023-02-06T06:22:11.571Z,1.67
2023-02-06T06:24:38.647Z,1.55
2023-02-06T06:27:05.814Z,1.38
2023-02-06T06:29:32.830Z,1.30
2023-02-06T06:31:59.869Z,1.60
2023-02-06T06:34:27.820Z,0.98
2023-02-06T06:36:54.909Z,2.00
2023-02-06T06:39:22.027Z,2.58
2023-02-06T06:41:49.133Z,0.47
2023-02-06T06:44:16.253Z,0.95
2023-02-06T06:46:44.611Z,0.63
2023-02-06T06:49:11.738Z,0.75
2023-02-06T06:51:38.794Z,0.32
2023-02-06T06:54:05.917Z,0.80
2023-02-06T06:56:33.210Z,1.27
2023-02-06T06:59:00.479Z,1.27
2023-02-06T07:01:27.609Z,1.02
2023-02-06T07:03:54.697Z,1.15
2023-02-06T07:06:21.737Z,1.45
2023-02-06T07:08:48.726Z,2.72
2023-02-06T07:11:17.022Z,1.50
2023-02-06T07:13:45.104Z,1.17
2023-02-06T07:16:12.728Z,1.90
2023-02-06T07:18:41.384Z,1.15
2023-02-06T07:21:09.025Z,1.73
2023-02-06T07:23:39.275Z,1.95
2023-02-06T07:26:07.020Z,1.80
2023-02-06T07:28:34.920Z,1.48
2023-02-06T07:31:03.868Z,2.38
2023-02-06T07:33:30.991Z,1.55
2023-02-06T07:35:58.997Z,1.67
2023-02-06T07:38:26.093Z,0.50
2023-02-06T07:40:53.125Z,0.85
2023-02-06T07:43:20.298Z,0.73
2023-02-06T07:45:47.347Z,1.00
2023-02-06T07:48:14.590Z,0.43
2023-02-06T07:50:41.693Z,1.23
2023-02-06T07:53:09.037Z,0.22
2023-02-06T07:55:38.326Z,0.90
2023-02-06T07:58:05.666Z,1.05
2023-02-06T08:00:32.719Z,1.38
2023-02-06T08:02:59.931Z,1.02
2023-02-06T08:05:27.161Z,1.35
2023-02-06T08:07:54.222Z,0.85
2023-02-06T08:10:21.231Z,0.10
2023-02-06T08:12:48.448Z,1.38
2023-02-06T08:15:17.303Z,1.25
2023-02-06T08:17:44.565Z,1.10
2023-02-06T08:20:12.869Z,0.90
2023-02-06T08:22:40.156Z,1.88
2023-02-06T08:25:07.621Z,1.23
2023-02-06T08:27:34.799Z,0.88
2023-02-06T08:30:01.822Z,1.38
2023-02-06T08:32:34.371Z,1.60
2023-02-06T08:35:01.554Z,0.50
2023-02-06T08:37:28.822Z,2.05
2023-02-06T08:39:55.947Z,1.77
2023-02-06T08:42:23.025Z,0.70
2023-02-06T08:44:50.271Z,0.88
2023-02-06T08:47:17.357Z,1.13
2023-02-06T08:49:44.405Z,1.30
2023-02-06T08:52:11.513Z,2.05
2023-02-06T08:54:39.033Z,1.15
2023-02-06T08:57:06.857Z,2.00
2023-02-06T08:59:35.003Z,1.38
2023-02-06T09:02:02.187Z,2.97
2023-02-06T09:04:32.635Z,1.55
2023-02-06T09:06:59.729Z,1.98
2023-02-06T09:09:27.235Z,1.98
2023-02-06T09:11:55.821Z,1.77
2023-02-06T09:14:23.033Z,1.67
2023-02-06T09:16:50.121Z,1.38
2023-02-06T09:19:17.225Z,1.75
2023-02-06T09:21:44.388Z,0.93
2023-02-06T09:24:11.667Z,1.30
2023-02-06T09:26:57.334Z,1.23
2023-02-06T09:29:27.269Z,1.60
2023-02-06T09:31:54.704Z,1.25
2023-02-06T09:34:21.785Z,2.03
2023-02-06T09:36:48.965Z,2.22
2023-02-06T09:39:16.228Z,2.35
2023-02-06T09:41:47.670Z,2.53
2023-02-06T09:44:28.658Z,2.17
2023-02-06T09:47:08.677Z,1.88
2023-02-06T09:49:38.459Z,2.45
2023-02-06T09:52:53.256Z,4.03
2023-02-06T09:55:26.019Z,3.55
2023-02-06T09:58:04.842Z,2.80
2023-02-06T10:00:52.182Z,2.55
2023-02-06T10:03:45.825Z,3.80
2023-02-06T10:06:39.016Z,1.20
2023-02-06T10:09:14.192Z,1.58
2023-02-06T10:11:58.124Z,1.35
2023-02-06T10:14:51.377Z,1.73
2023-02-06T10:17:30.057Z,2.03
2023-02-06T10:20:06.061Z,1.88
2023-02-06T10:22:39.310Z,1.58
2023-02-06T10:25:15.204Z,1.65
2023-02-06T10:27:44.810Z,2.03
2023-02-06T10:30:28.622Z,1.52
2023-02-06T10:33:07.870Z,2.70
2023-02-06T10:35:59.411Z,1.77
2023-02-06T10:38:39.150Z,0.98
2023-02-06T10:41:16.556Z,1.35
2023-02-06T10:44:01.002Z,2.55
2023-02-06T10:46:39.814Z,1.35
2023-02-06T10:49:30.760Z,1.67
2023-02-06T10:52:01.042Z,1.38
2023-02-06T10:54:42.133Z,1.10
2023-02-06T10:57:19.929Z,2.58
2023-02-06T10:59:53.636Z,1.45
2023-02-06T11:02:26.808Z,2.67
2023-02-06T11:05:03.737Z,3.45
2023-02-06T11:07:38.048Z,4.00
2023-02-06T11:10:07.962Z,1.48
2023-02-06T11:12:41.502Z,2.53
2023-02-06T11:15:20.311Z,1.27
2023-02-06T11:17:47.738Z,1.90
2023-02-06T11:20:22.046Z,2.65
2023-02-06T11:22:53.080Z,1.80
2023-02-06T11:25:32.145Z,2.38
2023-02-06T11:28:00.884Z,2.20
2023-02-06T11:30:35.334Z,2.38
2023-02-06T11:33:19.916Z,2.42
2023-02-06T11:35:59.182Z,3.20
2023-02-06T11:38:29.623Z,3.53
2023-02-06T11:41:16.608Z,2.58
2023-02-06T11:43:43.613Z,3.13
2023-02-06T11:46:25.519Z,2.90
2023-02-06T11:49:03.239Z,2.58
2023-02-06T11:51:54.244Z,4.95
2023-02-06T11:54:29.376Z,7.97
2023-02-06T11:56:59.937Z,6.20
2023-02-06T11:59:27.707Z,4.35
2023-02-06T12:01:55.682Z,2.75
2023-02-06T12:04:34.234Z,2.05
2023-02-06T12:07:20.727Z,2.50
2023-02-06T12:09:47.907Z,3.47
2023-02-06T12:12:35.849Z,3.80
2023-02-06T12:15:36.294Z,1.95
2023-02-06T12:18:04.530Z,3.58
2023-02-06T12:20:35.144Z,4.63
2023-02-06T12:23:19.197Z,4.75
2023-02-06T12:25:51.599Z,4.88
2023-02-06T12:28:34.668Z,5.97
2023-02-06T12:31:09.358Z,3.10
2023-02-06T12:33:55.291Z,4.47
2023-02-06T12:36:34.234Z,3.05
2023-02-06T12:39:22.714Z,2.25
2023-02-06T12:42:27.367Z,2.65
2023-02-06T12:45:00.960Z,2.92
2023-02-06T12:47:53.999Z,3.60
2023-02-06T12:50:34.059Z,3.60
2023-02-06T12:53:10.948Z,3.05
2023-02-06T12:56:00.545Z,2.88
2023-02-06T12:58:32.056Z,4.43
2023-02-06T13:01:29.208Z,2.83
2023-02-06T13:04:01.796Z,3.92
2023-02-06T13:06:36.062Z,3.42
2023-02-06T13:09:06.638Z,4.47
2023-02-06T13:11:40.664Z,2.55
2023-02-06T13:14:29.560Z,2.80
2023-02-06T13:17:08.047Z,4.30
2023-02-06T13:19:38.125Z,3.22
2023-02-06T13:22:11.128Z,3.47
2023-02-06T13:24:40.571Z,4.00
2023-02-06T13:27:31.748Z,2.85
2023-02-06T13:30:36.600Z,3.08
2023-02-06T13:33:14.155Z,2.15
2023-02-06T13:36:04.786Z,2.42
2023-02-06T13:38:35.195Z,1.42
2023-02-06T13:41:14.601Z,1.33
2023-02-06T13:43:42.603Z,2.00
2023-02-06T13:46:34.903Z,3.10
2023-02-06T13:49:36.242Z,2.72
2023-02-06T13:55:13.623Z,1.38
2023-02-06T13:58:27.459Z,1.83
2023-02-06T14:00:56.660Z,2.75
2023-02-06T14:03:30.735Z,2.75
2023-02-06T14:06:10.134Z,2.15
2023-02-06T14:09:13.615Z,2.20
2023-02-06T14:12:28.609Z,1.58
2023-02-06T14:15:17.771Z,2.40
2023-02-06T14:17:57.143Z,1.98
2023-02-06T14:20:33.256Z,2.10
2023-02-06T14:23:25.515Z,2.42
2023-02-06T14:26:11.518Z,2.65
2023-02-06T14:28:41.611Z,2.28
2023-02-06T14:31:47.513Z,0.77
2023-02-06T14:34:42.587Z,0.55
2023-02-06T14:37:54.598Z,1.10
2023-02-06T14:40:39.148Z,0.93
2023-02-06T14:43:13.287Z,0.85
2023-02-06T14:46:36.506Z,0.63
2023-02-06T14:49:04.800Z,1.08
2023-02-06T14:51:37.432Z,0.47
2023-02-06T14:54:07.890Z,1.33
2023-02-06T14:56:37.783Z,1.50
2023-02-06T14:59:22.982Z,0.30
2023-02-06T15:01:53.005Z,1.67
2023-02-06T15:04:23.582Z,1.25
2023-02-06T15:06:52.133Z,1.38
2023-02-06T15:09:31.237Z,0.77
2023-02-06T15:12:01.829Z,1.48
2023-02-06T15:14:35.169Z,1.25
2023-02-06T15:17:03.577Z,2.05
2023-02-06T15:19:33.936Z,1.80
2023-02-06T15:22:13.112Z,1.30
2023-02-06T15:24:53.437Z,1.40
2023-02-06T15:27:31.268Z,1.40
2023-02-06T15:29:59.729Z,4.30
2023-02-06T15:32:30.351Z,2.58
2023-02-06T15:34:58.263Z,2.85
2023-02-06T15:37:36.101Z,2.38
2023-02-06T15:40:19.726Z,0.80
2023-02-06T15:42:49.222Z,0.63
2023-02-06T15:45:24.014Z,1.40
2023-02-06T15:47:54.188Z,1.50
2023-02-06T15:50:25.294Z,0.57
2023-02-06T15:55:37.356Z,1.92
2023-02-06T15:58:06.230Z,1.15
2023-02-06T16:00:36.574Z,0.90
2023-02-06T16:03:19.285Z,1.13
2023-02-06T16:05:46.748Z,1.33
2023-02-06T16:08:20.965Z,1.73
2023-02-06T16:11:00.059Z,0.40
2023-02-06T16:13:30.297Z,1.58
2023-02-06T16:16:21.051Z,0.10
2023-02-06T16:18:52.363Z,0.77
2023-02-06T16:21:19.751Z,0.50
2023-02-06T16:23:54.705Z,1.52
2023-02-06T16:26:28.064Z,2.55
2023-02-06T16:29:01.252Z,1.85
2023-02-06T16:31:30.703Z,2.33
2023-02-06T16:34:04.607Z,1.75
2023-02-06T16:36:33.456Z,4.40
2023-02-06T16:39:04.388Z,3.60
2023-02-06T16:41:35.553Z,1.98
2023-02-06T16:44:04.600Z,2.33
2023-02-06T16:46:33.442Z,2.53
2023-02-06T16:49:00.944Z,2.83
2023-02-06T16:51:30.980Z,2.25
2023-02-06T16:53:59.153Z,3.20
2023-02-06T16:56:26.613Z,3.55
2023-02-06T16:58:54.699Z,5.03
2023-02-06T17:01:25.825Z,3.65
2023-02-06T17:06:25.086Z,2.42
2023-02-06T17:08:54.588Z,1.75
2023-02-06T17:11:24.067Z,2.88
2023-02-06T17:13:52.711Z,2.50
2023-02-06T17:16:23.583Z,3.45
2023-02-06T17:18:51.482Z,3.90
2023-02-06T17:21:22.511Z,3.92
2023-02-06T17:26:23.194Z,3.28
2023-02-06T17:28:51.169Z,1.95
2023-02-06T17:31:21.375Z,4.35
2023-02-06T17:33:48.984Z,3.13
2023-02-06T17:36:29.535Z,1.70
2023-02-06T17:39:00.591Z,1.60
2023-02-06T17:41:28.306Z,0.80
2023-02-06T17:43:55.710Z,1.00
2023-02-06T17:46:23.515Z,0.20
2023-02-06T17:48:50.726Z,0.40
2023-02-06T17:51:17.997Z,0.63
2023-02-06T17:53:45.292Z,0.43
2023-02-06T17:56:13.321Z,0.50
2023-02-06T17:58:42.806Z,0.30
2023-02-06T18:01:19.837Z,0.57
2023-02-06T18:03:48.121Z,0.55
2023-02-06T18:06:15.502Z,0.52
2023-02-06T18:08:43.033Z,1.48
2023-02-06T18:11:15.912Z,3.00
2023-02-06T18:13:43.340Z,2.50
2023-02-06T18:16:17.524Z,2.05
2023-02-06T18:18:44.884Z,3.95
2023-02-06T18:21:12.562Z,3.65
2023-02-06T18:23:40.257Z,2.40
2023-02-06T18:26:09.625Z,2.00
2023-02-06T18:28:38.549Z,2.45
2023-02-06T18:31:19.150Z,1.48
2023-02-06T18:33:46.477Z,1.17
2023-02-06T18:36:13.592Z,0.55
2023-02-06T18:38:41.248Z,0.98
2023-02-06T18:41:28.353Z,0.90
2023-02-06T18:43:56.079Z,0.47
2023-02-06T18:46:23.478Z,0.28
2023-02-06T18:48:50.751Z,0.10
2023-02-06T18:51:18.648Z,0.10
2023-02-06T18:53:45.886Z,0.32
2023-02-06T18:56:13.255Z,0.80
2023-02-06T18:58:40.526Z,0.90
2023-02-06T19:01:21.297Z,0.20
2023-02-06T19:03:50.273Z,0.88
2023-02-06T19:06:21.022Z,0.75
2023-02-06T19:08:48.431Z,0.43
2023-02-06T19:11:16.217Z,1.02
2023-02-06T19:13:43.696Z,0.45
2023-02-06T19:16:14.101Z,0.15
2023-02-06T19:18:43.653Z,0.20
2023-02-06T19:21:16.001Z,0.28
2023-02-06T19:23:45.188Z,0.17
2023-02-06T19:26:15.493Z,0.00
2023-02-06T19:28:44.566Z,0.03
2023-02-06T19:31:14.382Z,0.70
2023-02-06T19:33:42.045Z,0.77
2023-02-06T19:36:14.851Z,1.60
2023-02-06T19:38:42.797Z,1.15
2023-02-06T19:41:20.659Z,0.38
2023-02-06T19:43:48.666Z,1.80
2023-02-06T19:46:18.797Z,1.08
2023-02-06T19:48:47.544Z,1.00
2023-02-06T19:51:27.983Z,0.20
2023-02-06T19:53:56.585Z,0.15
2023-02-06T19:56:38.453Z,0.30
2023-02-06T19:59:21.038Z,1.13
2023-02-06T20:01:54.077Z,0.68
2023-02-06T20:04:25.180Z,0.68
2023-02-06T20:09:21.652Z,0.70
2023-02-06T20:11:50.842Z,1.08
2023-02-06T20:14:20.570Z,1.23
2023-02-06T20:16:49.179Z,0.85
2023-02-06T20:19:25.135Z,0.63
2023-02-06T20:21:58.561Z,0.40
2023-02-06T20:24:29.135Z,0.95
2023-02-06T20:26:59.578Z,2.22
2023-02-06T20:29:30.193Z,0.82
2023-02-06T20:31:59.402Z,1.70
2023-02-06T20:34:27.753Z,1.45
2023-02-06T20:36:56.005Z,2.38
2023-02-06T20:39:23.732Z,2.17
2023-02-06T20:41:51.153Z,2.00
2023-02-06T20:44:20.300Z,1.20
2023-02-06T20:46:48.032Z,2.83
2023-02-06T20:49:18.924Z,0.55
2023-02-06T20:51:48.216Z,1.33
2023-02-06T20:54:16.270Z,0.60
2023-02-06T20:56:43.648Z,0.20
2023-02-06T20:59:16.588Z,0.13
2023-02-06T21:01:44.442Z,0.70
2023-02-06T21:04:14.043Z,1.17
2023-02-06T21:06:42.264Z,0.10
2023-02-06T21:09:10.261Z,1.65
2023-02-06T21:11:41.117Z,1.70
2023-02-06T21:14:08.782Z,0.70
2023-02-06T21:16:38.211Z,1.40
2023-02-06T21:19:10.309Z,0.57
2023-02-06T21:21:38.343Z,1.00
2023-02-06T21:24:06.660Z,0.00
2023-02-06T21:26:34.399Z,1.05
2023-02-06T21:29:02.912Z,1.10
2023-02-06T21:31:37.781Z,4.53
2023-02-06T21:34:22.603Z,6.13
2023-02-06T21:36:50.494Z,4.35
2023-02-06T21:39:21.222Z,7.55
2023-02-06T21:41:51.862Z,3.88
2023-02-06T21:44:19.467Z,2.17
2023-02-06T21:46:46.918Z,1.98
2023-02-06T21:49:15.423Z,1.17
2023-02-06T21:51:42.620Z,3.72
2023-02-06T21:54:10.385Z,4.28
2023-02-06T21:56:38.776Z,2.20
2023-02-06T21:59:06.379Z,1.60
2023-02-06T22:01:34.612Z,4.82
2023-02-06T22:04:03.161Z,2.05
2023-02-06T22:06:30.483Z,4.93
2023-02-06T22:09:05.539Z,3.58
2023-02-06T22:11:33.953Z,3.58
2023-02-06T22:14:11.441Z,4.45
2023-02-06T22:16:38.966Z,3.08
2023-02-06T22:19:06.910Z,4.28
2023-02-06T22:21:35.192Z,4.65
2023-02-06T22:24:06.283Z,4.45
2023-02-06T22:26:37.124Z,5.00
2023-02-06T22:29:05.958Z,4.88
2023-02-06T22:31:35.432Z,4.00
2023-02-06T22:34:03.275Z,3.25
2023-02-06T22:36:32.415Z,3.05
2023-02-06T22:39:07.374Z,3.03
2023-02-06T22:41:38.577Z,2.35
2023-02-06T22:44:05.817Z,2.40
2023-02-06T22:46:36.222Z,5.07
2023-02-06T22:49:05.732Z,2.05
2023-02-06T22:51:33.374Z,2.42
2023-02-06T22:54:01.092Z,2.42
2023-02-06T22:56:31.543Z,3.88
2023-02-06T22:59:08.631Z,1.00
2023-02-06T23:01:39.824Z,2.88
2023-02-06T23:04:09.419Z,1.25
2023-02-06T23:06:37.485Z,1.75
2023-02-06T23:09:07.553Z,3.17
2023-02-06T23:11:35.683Z,1.70
2023-02-06T23:14:05.046Z,2.15
2023-02-06T23:16:34.034Z,1.88
2023-02-06T23:19:05.121Z,3.90
2023-02-06T23:24:00.896Z,2.40
2023-02-06T23:26:29.190Z,2.35
2023-02-06T23:28:57.786Z,3.70
2023-02-06T23:31:26.146Z,3.17
2023-02-06T23:33:54.326Z,3.35
2023-02-06T23:36:23.829Z,2.63
2023-02-06T23:38:52.952Z,3.15
2023-02-06T23:41:26.260Z,3.45
2023-02-06T23:43:59.611Z,3.58
2023-02-06T23:46:31.583Z,2.75
2023-02-06T23:48:59.189Z,2.50
2023-02-06T23:51:27.502Z,1.58
2023-02-06T23:53:54.854Z,1.05
2023-02-06T23:56:24.908Z,2.70
2023-02-06T23:58:52.984Z,2.00
